sensor_id;sensor_type;location;lat;lon;timestamp;pressure;altitude;pressure_sealevel;temperature;humidity
70916;BME280;58557;50.982;-3.222;2023-01-28T00:00:07;102571.68;;;8.01;42.71
70916;BME280;58557;50.982;-3.222;2023-01-28T00:02:31;102573.70;;;8.90;42.81
70916;BME280;58557;50.982;-3.222;2023-01-28T00:04:57;102576.14;;;8.80;41.88
70916;BME280;58557;50.982;-3.222;2023-01-28T00:07:22;102583.60;;;8.92;42.74
70916;BME280;58557;50.982;-3.222;2023-01-28T00:09:47;102582.98;;;8.47;42.95
70916;BME280;58557;50.982;-3.222;2023-01-28T00:12:12;102579.65;;;8.80;42.75
70916;BME280;58557;50.982;-3.222;2023-01-28T00:14:37;102581.23;;;8.67;42.57
70916;BME280;58557;50.982;-3.222;2023-01-28T00:17:04;102579.32;;;8.63;42.13
70916;BME280;58557;50.982;-3.222;2023-01-28T00:19:28;102582.15;;;7.97;43.39
70916;BME280;58557;50.982;-3.222;2023-01-28T00:21:53;102583.58;;;8.62;42.64
70916;BME280;58557;50.982;-3.222;2023-01-28T00:24:19;102584.50;;;9.30;41.96
70916;BME280;58557;50.982;-3.222;2023-01-28T00:26:46;102580.30;;;9.56;42.03
70916;BME280;58557;50.982;-3.222;2023-01-28T00:29:12;102576.36;;;9.51;40.76
70916;BME280;58557;50.982;-3.222;2023-01-28T00:31:36;102574.29;;;9.38;41.52
70916;BME280;58557;50.982;-3.222;2023-01-28T00:34:03;102578.77;;;9.02;42.12
70916;BME280;58557;50.982;-3.222;2023-01-28T00:36:27;102573.01;;;9.39;41.80
70916;BME280;58557;50.982;-3.222;2023-01-28T00:38:54;102574.91;;;9.37;41.69
70916;BME280;58557;50.982;-3.222;2023-01-28T00:41:20;102573.86;;;10.07;39.77
70916;BME280;58557;50.982;-3.222;2023-01-28T00:43:44;102574.86;;;9.30;41.31
70916;BME280;58557;50.982;-3.222;2023-01-28T00:46:11;102579.22;;;8.84;41.69
70916;BME280;58557;50.982;-3.222;2023-01-28T00:48:35;102580.79;;;8.71;43.88
70916;BME280;58557;50.982;-3.222;2023-01-28T00:51:00;102581.58;;;8.61;42.75
70916;BME280;58557;50.982;-3.222;2023-01-28T00:53:25;102583.93;;;8.86;42.78
70916;BME280;58557;50.982;-3.222;2023-01-28T00:55:52;102589.13;;;8.96;42.24
70916;BME280;58557;50.982;-3.222;2023-01-28T00:58:16;102587.57;;;9.25;40.55
70916;BME280;58557;50.982;-3.222;2023-01-28T01:00:42;102581.69;;;9.56;39.90
70916;BME280;58557;50.982;-3.222;2023-01-28T01:03:07;102584.78;;;8.52;39.70
70916;BME280;58557;50.982;-3.222;2023-01-28T01:05:33;102581.31;;;8.66;40.48
70916;BME280;58557;50.982;-3.222;2023-01-28T01:07:58;102581.94;;;8.58;40.55
70916;BME280;58557;50.982;-3.222;2023-01-28T01:10:24;102581.43;;;8.56;39.85
70916;BME280;58557;50.982;-3.222;2023-01-28T01:12:54;102574.83;;;6.88;40.69
70916;BME280;58557;50.982;-3.222;2023-01-28T01:15:16;102580.56;;;6.97;40.79
70916;BME280;58557;50.982;-3.222;2023-01-28T01:17:41;102577.32;;;7.33;41.57
70916;BME280;58557;50.982;-3.222;2023-01-28T01:20:08;102578.69;;;7.08;42.56
70916;BME280;58557;50.982;-3.222;2023-01-28T01:22:32;102571.37;;;7.64;41.49
70916;BME280;58557;50.982;-3.222;2023-01-28T01:24:55;102567.29;;;7.79;41.56
70916;BME280;58557;50.982;-3.222;2023-01-28T01:27:21;102560.77;;;7.44;41.81
70916;BME280;58557;50.982;-3.222;2023-01-28T01:29:46;102559.23;;;8.15;41.46
70916;BME280;58557;50.982;-3.222;2023-01-28T01:32:11;102559.61;;;8.14;41.08
70916;BME280;58557;50.982;-3.222;2023-01-28T01:34:36;102558.73;;;7.30;41.71
70916;BME280;58557;50.982;-3.222;2023-01-28T01:37:02;102558.48;;;8.42;40.79
70916;BME280;58557;50.982;-3.222;2023-01-28T01:39:27;102557.32;;;8.56;40.59
70916;BME280;58557;50.982;-3.222;2023-01-28T01:41:53;102557.83;;;8.72;39.36
70916;BME280;58557;50.982;-3.222;2023-01-28T01:46:50;102553.87;;;8.54;39.58
70916;BME280;58557;50.982;-3.222;2023-01-28T01:49:18;102550.31;;;8.12;40.04
70916;BME280;58557;50.982;-3.222;2023-01-28T01:51:35;102552.27;;;8.65;38.77
70916;BME280;58557;50.982;-3.222;2023-01-28T01:54:00;102551.07;;;8.67;37.94
70916;BME280;58557;50.982;-3.222;2023-01-28T01:56:29;102549.82;;;8.91;38.53
70916;BME280;58557;50.982;-3.222;2023-01-28T01:58:52;102550.78;;;8.97;38.61
70916;BME280;58557;50.982;-3.222;2023-01-28T02:01:17;102558.90;;;8.15;39.61
70916;BME280;58557;50.982;-3.222;2023-01-28T02:03:49;102554.81;;;7.22;41.25
70916;BME280;58557;50.982;-3.222;2023-01-28T02:06:08;102554.66;;;7.58;40.43
70916;BME280;58557;50.982;-3.222;2023-01-28T02:08:33;102557.31;;;7.36;40.67
70916;BME280;58557;50.982;-3.222;2023-01-28T02:11:00;102558.16;;;7.91;40.52
70916;BME280;58557;50.982;-3.222;2023-01-28T02:13:26;102562.03;;;7.40;40.46
70916;BME280;58557;50.982;-3.222;2023-01-28T02:15:50;102558.57;;;7.37;41.04
70916;BME280;58557;50.982;-3.222;2023-01-28T02:18:15;102568.18;;;6.34;42.17
70916;BME280;58557;50.982;-3.222;2023-01-28T02:23:20;102567.92;;;5.74;44.22
70916;BME280;58557;50.982;-3.222;2023-01-28T02:28:08;102570.48;;;5.15;44.61
70916;BME280;58557;50.982;-3.222;2023-01-28T02:30:29;102572.81;;;5.45;44.63
70916;BME280;58557;50.982;-3.222;2023-01-28T02:32:53;102570.41;;;4.96;45.79
70916;BME280;58557;50.982;-3.222;2023-01-28T02:35:17;102571.16;;;5.26;45.76
70916;BME280;58557;50.982;-3.222;2023-01-28T02:37:43;102570.42;;;5.26;45.73
70916;BME280;58557;50.982;-3.222;2023-01-28T02:40:09;102572.19;;;6.58;43.79
70916;BME280;58557;50.982;-3.222;2023-01-28T02:42:30;102570.95;;;7.19;42.37
70916;BME280;58557;50.982;-3.222;2023-01-28T02:44:54;102575.64;;;7.44;42.00
70916;BME280;58557;50.982;-3.222;2023-01-28T02:47:19;102576.74;;;7.23;41.70
70916;BME280;58557;50.982;-3.222;2023-01-28T02:49:49;102580.84;;;7.77;41.74
70916;BME280;58557;50.982;-3.222;2023-01-28T02:52:23;102581.57;;;8.51;40.91
70916;BME280;58557;50.982;-3.222;2023-01-28T02:54:40;102585.96;;;7.56;41.06
70916;BME280;58557;50.982;-3.222;2023-01-28T02:57:08;102588.55;;;8.86;39.51
70916;BME280;58557;50.982;-3.222;2023-01-28T02:59:33;102584.61;;;9.11;38.07
70916;BME280;58557;50.982;-3.222;2023-01-28T03:01:55;102583.40;;;8.40;38.81
70916;BME280;58557;50.982;-3.222;2023-01-28T03:04:21;102592.33;;;8.62;38.78
70916;BME280;58557;50.982;-3.222;2023-01-28T03:06:48;102592.64;;;8.32;39.48
70916;BME280;58557;50.982;-3.222;2023-01-28T03:09:11;102593.08;;;8.18;39.15
70916;BME280;58557;50.982;-3.222;2023-01-28T03:11:36;102589.67;;;8.05;40.37
70916;BME280;58557;50.982;-3.222;2023-01-28T03:13:58;102592.78;;;7.03;41.37
70916;BME280;58557;50.982;-3.222;2023-01-28T03:16:23;102593.17;;;8.76;39.27
70916;BME280;58557;50.982;-3.222;2023-01-28T03:18:51;102596.08;;;7.46;40.10
70916;BME280;58557;50.982;-3.222;2023-01-28T03:21:19;102593.48;;;8.37;39.36
70916;BME280;58557;50.982;-3.222;2023-01-28T03:23:47;102593.39;;;7.36;42.35
70916;BME280;58557;50.982;-3.222;2023-01-28T03:26:07;102595.32;;;7.81;39.98
70916;BME280;58557;50.982;-3.222;2023-01-28T03:28:32;102589.25;;;7.29;41.33
70916;BME280;58557;50.982;-3.222;2023-01-28T03:31:00;102590.42;;;7.98;39.37
70916;BME280;58557;50.982;-3.222;2023-01-28T03:33:21;102594.31;;;6.39;41.79
70916;BME280;58557;50.982;-3.222;2023-01-28T03:35:47;102593.79;;;6.98;41.65
70916;BME280;58557;50.982;-3.222;2023-01-28T03:38:13;102591.05;;;7.17;41.57
70916;BME280;58557;50.982;-3.222;2023-01-28T03:43:03;102590.00;;;6.69;41.57
70916;BME280;58557;50.982;-3.222;2023-01-28T03:45:33;102584.41;;;7.49;41.65
70916;BME280;58557;50.982;-3.222;2023-01-28T03:47:53;102577.88;;;7.56;41.08
70916;BME280;58557;50.982;-3.222;2023-01-28T03:50:23;102573.09;;;7.74;40.85
70916;BME280;58557;50.982;-3.222;2023-01-28T03:52:44;102573.71;;;7.97;40.50
70916;BME280;58557;50.982;-3.222;2023-01-28T03:55:14;102576.80;;;8.41;39.89
70916;BME280;58557;50.982;-3.222;2023-01-28T03:57:39;102577.95;;;8.15;39.63
70916;BME280;58557;50.982;-3.222;2023-01-28T04:00:00;102578.27;;;7.55;40.06
70916;BME280;58557;50.982;-3.222;2023-01-28T04:02:27;102573.83;;;9.12;39.44
70916;BME280;58557;50.982;-3.222;2023-01-28T04:04:51;102568.50;;;9.02;39.19
70916;BME280;58557;50.982;-3.222;2023-01-28T04:07:17;102564.32;;;8.91;38.84
70916;BME280;58557;50.982;-3.222;2023-01-28T04:09:42;102557.46;;;8.15;39.67
70916;BME280;58557;50.982;-3.222;2023-01-28T04:12:07;102553.64;;;8.23;39.81
70916;BME280;58557;50.982;-3.222;2023-01-28T04:14:38;102546.95;;;9.17;39.04
70916;BME280;58557;50.982;-3.222;2023-01-28T04:16:58;102546.86;;;9.14;38.63
70916;BME280;58557;50.982;-3.222;2023-01-28T04:19:25;102553.82;;;9.57;37.33
70916;BME280;58557;50.982;-3.222;2023-01-28T04:21:49;102558.65;;;8.73;39.01
70916;BME280;58557;50.982;-3.222;2023-01-28T04:24:20;102554.39;;;9.06;39.17
70916;BME280;58557;50.982;-3.222;2023-01-28T04:26:40;102558.70;;;8.82;39.48
70916;BME280;58557;50.982;-3.222;2023-01-28T04:29:05;102556.93;;;8.86;39.27
70916;BME280;58557;50.982;-3.222;2023-01-28T04:31:31;102562.64;;;9.84;38.02
70916;BME280;58557;50.982;-3.222;2023-01-28T04:33:56;102559.54;;;9.44;37.54
70916;BME280;58557;50.982;-3.222;2023-01-28T04:36:26;102556.95;;;8.89;38.07
70916;BME280;58557;50.982;-3.222;2023-01-28T04:38:46;102560.53;;;8.31;38.31
70916;BME280;58557;50.982;-3.222;2023-01-28T04:41:11;102565.67;;;8.31;39.03
70916;BME280;58557;50.982;-3.222;2023-01-28T04:43:41;102565.42;;;8.86;38.72
70916;BME280;58557;50.982;-3.222;2023-01-28T04:46:02;102561.12;;;9.25;38.43
70916;BME280;58557;50.982;-3.222;2023-01-28T04:48:33;102561.23;;;8.09;39.11
70916;BME280;58557;50.982;-3.222;2023-01-28T04:50:54;102562.90;;;8.07;39.68
70916;BME280;58557;50.982;-3.222;2023-01-28T04:53:24;102569.57;;;7.57;40.26
70916;BME280;58557;50.982;-3.222;2023-01-28T04:55:44;102575.94;;;8.23;39.67
70916;BME280;58557;50.982;-3.222;2023-01-28T04:58:09;102579.90;;;8.52;39.36
70916;BME280;58557;50.982;-3.222;2023-01-28T05:00:35;102582.22;;;8.17;39.86
70916;BME280;58557;50.982;-3.222;2023-01-28T05:03:00;102585.11;;;7.84;40.69
70916;BME280;58557;50.982;-3.222;2023-01-28T05:05:28;102591.05;;;7.65;40.67
70916;BME280;58557;50.982;-3.222;2023-01-28T05:07:52;102594.06;;;7.68;40.80
70916;BME280;58557;50.982;-3.222;2023-01-28T05:10:18;102599.26;;;7.21;41.51
70916;BME280;58557;50.982;-3.222;2023-01-28T05:12:43;102597.68;;;7.11;42.13
70916;BME280;58557;50.982;-3.222;2023-01-28T05:15:10;102584.70;;;7.17;42.00
70916;BME280;58557;50.982;-3.222;2023-01-28T05:17:34;102585.61;;;6.39;42.82
70916;BME280;58557;50.982;-3.222;2023-01-28T05:20:05;102592.46;;;6.16;43.92
70916;BME280;58557;50.982;-3.222;2023-01-28T05:22:24;102588.32;;;5.75;44.47
70916;BME280;58557;50.982;-3.222;2023-01-28T05:24:54;102585.18;;;5.13;46.25
70916;BME280;58557;50.982;-3.222;2023-01-28T05:27:20;102589.09;;;5.56;45.90
70916;BME280;58557;50.982;-3.222;2023-01-28T05:29:45;102595.96;;;5.40;45.95
70916;BME280;58557;50.982;-3.222;2023-01-28T05:32:11;102594.21;;;5.57;46.25
70916;BME280;58557;50.982;-3.222;2023-01-28T05:34:32;102605.70;;;4.75;47.75
70916;BME280;58557;50.982;-3.222;2023-01-28T05:36:57;102607.69;;;6.05;45.70
70916;BME280;58557;50.982;-3.222;2023-01-28T05:39:27;102600.75;;;5.65;45.81
70916;BME280;58557;50.982;-3.222;2023-01-28T05:41:53;102597.47;;;5.31;44.97
70916;BME280;58557;50.982;-3.222;2023-01-28T05:44:18;102599.47;;;5.68;45.25
70916;BME280;58557;50.982;-3.222;2023-01-28T05:46:44;102608.60;;;6.70;42.83
70916;BME280;58557;50.982;-3.222;2023-01-28T05:49:09;102600.16;;;6.97;42.50
70916;BME280;58557;50.982;-3.222;2023-01-28T05:51:32;102600.47;;;7.16;41.67
70916;BME280;58557;50.982;-3.222;2023-01-28T05:53:56;102609.06;;;7.53;41.27
70916;BME280;58557;50.982;-3.222;2023-01-28T05:56:25;102617.01;;;6.67;42.16
70916;BME280;58557;50.982;-3.222;2023-01-28T05:58:51;102622.71;;;6.33;43.44
70916;BME280;58557;50.982;-3.222;2023-01-28T06:01:12;102618.73;;;6.73;41.97
70916;BME280;58557;50.982;-3.222;2023-01-28T06:03:37;102620.54;;;7.06;41.97
70916;BME280;58557;50.982;-3.222;2023-01-28T06:06:08;102626.06;;;7.46;41.51
70916;BME280;58557;50.982;-3.222;2023-01-28T06:08:28;102632.65;;;6.76;41.61
70916;BME280;58557;50.982;-3.222;2023-01-28T06:10:53;102629.34;;;6.38;42.15
70916;BME280;58557;50.982;-3.222;2023-01-28T06:13:18;102630.93;;;7.66;41.08
70916;BME280;58557;50.982;-3.222;2023-01-28T06:15:49;102634.09;;;7.27;41.43
70916;BME280;58557;50.982;-3.222;2023-01-28T06:18:09;102640.18;;;7.69;40.91
70916;BME280;58557;50.982;-3.222;2023-01-28T06:20:34;102642.23;;;7.58;40.54
70916;BME280;58557;50.982;-3.222;2023-01-28T06:23:00;102633.07;;;7.20;41.49
70916;BME280;58557;50.982;-3.222;2023-01-28T06:25:26;102627.57;;;7.19;41.43
70916;BME280;58557;50.982;-3.222;2023-01-28T06:27:51;102613.66;;;6.52;42.50
70916;BME280;58557;50.982;-3.222;2023-01-28T06:30:17;102608.12;;;8.09;40.23
70916;BME280;58557;50.982;-3.222;2023-01-28T06:32:43;102605.28;;;8.38;39.60
70916;BME280;58557;50.982;-3.222;2023-01-28T06:35:13;102596.97;;;8.44;39.14
70916;BME280;58557;50.982;-3.222;2023-01-28T06:37:34;102590.31;;;8.57;39.36
70916;BME280;58557;50.982;-3.222;2023-01-28T06:39:59;102587.20;;;8.34;39.06
70916;BME280;58557;50.982;-3.222;2023-01-28T06:42:25;102581.04;;;8.01;39.84
70916;BME280;58557;50.982;-3.222;2023-01-28T06:44:50;102578.69;;;8.78;38.65
70916;BME280;58557;50.982;-3.222;2023-01-28T06:47:17;102583.53;;;8.08;39.08
70916;BME280;58557;50.982;-3.222;2023-01-28T06:49:41;102584.25;;;7.99;40.32
70916;BME280;58557;50.982;-3.222;2023-01-28T06:52:07;102586.45;;;8.22;41.51
70916;BME280;58557;50.982;-3.222;2023-01-28T06:54:32;102590.58;;;7.80;40.95
70916;BME280;58557;50.982;-3.222;2023-01-28T06:56:58;102591.34;;;8.35;40.35
70916;BME280;58557;50.982;-3.222;2023-01-28T06:59:23;102594.86;;;8.49;40.17
70916;BME280;58557;50.982;-3.222;2023-01-28T07:01:49;102599.22;;;9.38;38.04
70916;BME280;58557;50.982;-3.222;2023-01-28T07:04:15;102591.60;;;7.64;39.99
70916;BME280;58557;50.982;-3.222;2023-01-28T07:06:40;102588.85;;;6.69;43.12
70916;BME280;58557;50.982;-3.222;2023-01-28T07:09:11;102590.84;;;8.11;40.46
70916;BME280;58557;50.982;-3.222;2023-01-28T07:11:31;102588.68;;;7.90;40.76
70916;BME280;58557;50.982;-3.222;2023-01-28T07:13:57;102588.43;;;8.78;39.59
70916;BME280;58557;50.982;-3.222;2023-01-28T07:16:23;102591.64;;;7.78;40.17
70916;BME280;58557;50.982;-3.222;2023-01-28T07:18:53;102591.21;;;7.50;40.92
70916;BME280;58557;50.982;-3.222;2023-01-28T07:21:13;102593.67;;;6.24;43.20
70916;BME280;58557;50.982;-3.222;2023-01-28T07:23:38;102595.47;;;7.91;41.16
70916;BME280;58557;50.982;-3.222;2023-01-28T07:26:04;102604.80;;;7.60;40.97
70916;BME280;58557;50.982;-3.222;2023-01-28T07:28:29;102608.27;;;5.89;43.27
70916;BME280;58557;50.982;-3.222;2023-01-28T07:30:59;102610.66;;;6.60;43.44
70916;BME280;58557;50.982;-3.222;2023-01-28T07:33:25;102603.84;;;8.51;40.33
70916;BME280;58557;50.982;-3.222;2023-01-28T07:35:51;102604.25;;;9.10;39.25
70916;BME280;58557;50.982;-3.222;2023-01-28T07:38:11;102611.67;;;7.72;39.97
70916;BME280;58557;50.982;-3.222;2023-01-28T07:40:37;102615.71;;;7.18;41.77
70916;BME280;58557;50.982;-3.222;2023-01-28T07:43:04;102617.05;;;6.19;43.75
70916;BME280;58557;50.982;-3.222;2023-01-28T07:45:32;102612.23;;;7.83;41.71
70916;BME280;58557;50.982;-3.222;2023-01-28T07:47:54;102621.67;;;8.84;39.56
70916;BME280;58557;50.982;-3.222;2023-01-28T07:50:17;102625.39;;;7.66;42.01
70916;BME280;58557;50.982;-3.222;2023-01-28T07:52:43;102621.96;;;6.75;44.36
70916;BME280;58557;50.982;-3.222;2023-01-28T07:55:10;102620.29;;;8.34;41.71
70916;BME280;58557;50.982;-3.222;2023-01-28T07:57:33;102624.28;;;8.42;41.16
70916;BME280;58557;50.982;-3.222;2023-01-28T07:59:59;102627.75;;;8.82;39.54
70916;BME280;58557;50.982;-3.222;2023-01-28T08:02:24;102638.03;;;5.88;43.54
70916;BME280;58557;50.982;-3.222;2023-01-28T08:04:50;102640.39;;;6.80;43.09
70916;BME280;58557;50.982;-3.222;2023-01-28T08:07:16;102647.57;;;6.89;43.72
70916;BME280;58557;50.982;-3.222;2023-01-28T08:09:43;102650.02;;;4.87;46.59
70916;BME280;58557;50.982;-3.222;2023-01-28T08:12:11;102656.32;;;7.05;42.85
70916;BME280;58557;50.982;-3.222;2023-01-28T08:14:32;102648.47;;;6.80;43.72
70916;BME280;58557;50.982;-3.222;2023-01-28T08:17:03;102644.72;;;5.03;46.27
70916;BME280;58557;50.982;-3.222;2023-01-28T08:19:23;102651.57;;;5.27;46.50
70916;BME280;58557;50.982;-3.222;2023-01-28T08:21:48;102659.29;;;3.54;49.70
70916;BME280;58557;50.982;-3.222;2023-01-28T08:24:14;102654.24;;;5.63;48.24
70916;BME280;58557;50.982;-3.222;2023-01-28T08:26:40;102650.82;;;6.40;45.50
70916;BME280;58557;50.982;-3.222;2023-01-28T08:29:05;102657.21;;;5.95;46.40
70916;BME280;58557;50.982;-3.222;2023-01-28T08:31:31;102665.82;;;6.50;44.43
70916;BME280;58557;50.982;-3.222;2023-01-28T08:34:02;102671.96;;;5.35;46.89
70916;BME280;58557;50.982;-3.222;2023-01-28T08:36:22;102682.68;;;6.22;45.70
70916;BME280;58557;50.982;-3.222;2023-01-28T08:38:52;102675.78;;;6.15;45.73
70916;BME280;58557;50.982;-3.222;2023-01-28T08:41:19;102684.36;;;7.43;43.47
70916;BME280;58557;50.982;-3.222;2023-01-28T08:43:39;102693.04;;;6.93;43.42
70916;BME280;58557;50.982;-3.222;2023-01-28T08:46:04;102686.86;;;6.68;44.68
70916;BME280;58557;50.982;-3.222;2023-01-28T08:48:34;102679.54;;;5.87;44.82
70916;BME280;58557;50.982;-3.222;2023-01-28T08:50:59;102685.61;;;6.27;45.18
70916;BME280;58557;50.982;-3.222;2023-01-28T08:53:21;102686.57;;;6.89;45.19
70916;BME280;58557;50.982;-3.222;2023-01-28T08:55:50;102687.90;;;5.53;46.87
70916;BME280;58557;50.982;-3.222;2023-01-28T08:58:13;102694.50;;;7.13;44.53
70916;BME280;58557;50.982;-3.222;2023-01-28T09:00:37;102696.40;;;7.14;44.85
70916;BME280;58557;50.982;-3.222;2023-01-28T09:03:03;102696.10;;;8.09;42.25
70916;BME280;58557;50.982;-3.222;2023-01-28T09:05:33;102706.78;;;7.81;42.14
70916;BME280;58557;50.982;-3.222;2023-01-28T09:07:53;102703.54;;;8.42;41.01
70916;BME280;58557;50.982;-3.222;2023-01-28T09:10:18;102704.58;;;8.79;39.78
70916;BME280;58557;50.982;-3.222;2023-01-28T09:12:44;102704.69;;;8.21;40.69
70916;BME280;58557;50.982;-3.222;2023-01-28T09:15:10;102688.29;;;8.95;40.03
70916;BME280;58557;50.982;-3.222;2023-01-28T09:17:34;102678.98;;;9.17;39.35
70916;BME280;58557;50.982;-3.222;2023-01-28T09:20:00;102687.93;;;8.63;39.38
70916;BME280;58557;50.982;-3.222;2023-01-28T09:22:32;102688.74;;;5.88;44.51
70916;BME280;58557;50.982;-3.222;2023-01-28T09:24:51;102683.11;;;8.22;41.92
70916;BME280;58557;50.982;-3.222;2023-01-28T09:27:18;102682.98;;;8.43;40.71
70916;BME280;58557;50.982;-3.222;2023-01-28T09:29:42;102678.71;;;8.02;41.34
70916;BME280;58557;50.982;-3.222;2023-01-28T09:32:13;102675.34;;;8.13;41.38
70916;BME280;58557;50.982;-3.222;2023-01-28T09:34:38;102677.11;;;8.19;41.12
70916;BME280;58557;50.982;-3.222;2023-01-28T09:36:59;102675.67;;;8.38;38.97
70916;BME280;58557;50.982;-3.222;2023-01-28T09:39:30;102676.12;;;9.34;38.72
70916;BME280;58557;50.982;-3.222;2023-01-28T09:41:58;102677.21;;;7.29;41.64
70916;BME280;58557;50.982;-3.222;2023-01-28T09:44:26;102676.53;;;7.90;40.26
70916;BME280;58557;50.982;-3.222;2023-01-28T09:46:42;102676.75;;;8.02;40.13
70916;BME280;58557;50.982;-3.222;2023-01-28T09:49:16;102675.27;;;5.55;44.00
70916;BME280;58557;50.982;-3.222;2023-01-28T09:51:40;102671.18;;;7.00;42.59
70916;BME280;58557;50.982;-3.222;2023-01-28T09:54:17;102669.90;;;8.01;41.49
70916;BME280;58557;50.982;-3.222;2023-01-28T09:56:26;102679.96;;;7.79;41.61
70916;BME280;58557;50.982;-3.222;2023-01-28T09:58:54;102688.51;;;7.38;43.10
70916;BME280;58557;50.982;-3.222;2023-01-28T10:03:48;102677.43;;;6.31;45.07
70916;BME280;58557;50.982;-3.222;2023-01-28T10:06:18;102663.56;;;8.22;41.99
70916;BME280;58557;50.982;-3.222;2023-01-28T10:08:44;102650.20;;;7.57;42.34
70916;BME280;58557;50.982;-3.222;2023-01-28T10:11:01;102642.39;;;8.67;40.59
70916;BME280;58557;50.982;-3.222;2023-01-28T10:13:29;102641.52;;;9.02;39.70
70916;BME280;58557;50.982;-3.222;2023-01-28T10:15:53;102633.94;;;7.30;41.18
70916;BME280;58557;50.982;-3.222;2023-01-28T10:18:12;102626.34;;;8.06;40.46
70916;BME280;58557;50.982;-3.222;2023-01-28T10:20:45;102626.64;;;6.59;43.73
70916;BME280;58557;50.982;-3.222;2023-01-28T10:23:13;102627.51;;;7.96;42.26
70916;BME280;58557;50.982;-3.222;2023-01-28T10:25:30;102632.64;;;7.67;42.16
70916;BME280;58557;50.982;-3.222;2023-01-28T10:27:53;102631.09;;;6.69;44.53
70916;BME280;58557;50.982;-3.222;2023-01-28T10:30:21;102622.68;;;6.09;44.10
70916;BME280;58557;50.982;-3.222;2023-01-28T10:32:50;102626.61;;;6.29;45.21
70916;BME280;58557;50.982;-3.222;2023-01-28T10:35:15;102622.72;;;6.86;43.57
70916;BME280;58557;50.982;-3.222;2023-01-28T10:37:36;102620.10;;;5.90;45.10
70916;BME280;58557;50.982;-3.222;2023-01-28T10:40:00;102630.97;;;6.41;44.93
70916;BME280;58557;50.982;-3.222;2023-01-28T10:42:28;102631.75;;;6.82;44.50
70916;BME280;58557;50.982;-3.222;2023-01-28T10:44:52;102617.58;;;7.51;41.35
70916;BME280;58557;50.982;-3.222;2023-01-28T10:47:30;102614.01;;;8.16;41.58
70916;BME280;58557;50.982;-3.222;2023-01-28T10:49:53;102606.71;;;7.92;40.81
70916;BME280;58557;50.982;-3.222;2023-01-28T10:52:10;102609.40;;;6.58;43.33
70916;BME280;58557;50.982;-3.222;2023-01-28T10:54:34;102600.67;;;7.49;42.35
70916;BME280;58557;50.982;-3.222;2023-01-28T10:57:02;102606.78;;;6.85;43.29
70916;BME280;58557;50.982;-3.222;2023-01-28T10:59:26;102603.75;;;5.87;45.31
70916;BME280;58557;50.982;-3.222;2023-01-28T11:01:52;102599.57;;;7.50;42.20
70916;BME280;58557;50.982;-3.222;2023-01-28T11:04:19;102604.26;;;7.43;41.74
70916;BME280;58557;50.982;-3.222;2023-01-28T11:06:41;102608.89;;;5.62;44.40
70916;BME280;58557;50.982;-3.222;2023-01-28T11:11:32;102618.92;;;6.89;43.96
70916;BME280;58557;50.982;-3.222;2023-01-28T11:14:02;102617.56;;;6.14;44.41
70916;BME280;58557;50.982;-3.222;2023-01-28T11:16:23;102622.07;;;6.90;44.18
70916;BME280;58557;50.982;-3.222;2023-01-28T11:18:56;102625.01;;;6.97;44.01
70916;BME280;58557;50.982;-3.222;2023-01-28T11:21:21;102627.74;;;4.81;46.71
70916;BME280;58557;50.982;-3.222;2023-01-28T11:23:47;102631.94;;;5.47;46.21
70916;BME280;58557;50.982;-3.222;2023-01-28T11:26:06;102628.65;;;6.92;44.66
70916;BME280;58557;50.982;-3.222;2023-01-28T11:28:31;102626.79;;;5.91;46.27
70916;BME280;58557;50.982;-3.222;2023-01-28T11:31:02;102633.86;;;6.91;45.35
70916;BME280;58557;50.982;-3.222;2023-01-28T11:33:31;102641.53;;;6.47;46.03
70916;BME280;58557;50.982;-3.222;2023-01-28T11:35:51;102640.55;;;7.66;43.70
70916;BME280;58557;50.982;-3.222;2023-01-28T11:38:18;102633.05;;;8.31;42.53
70916;BME280;58557;50.982;-3.222;2023-01-28T11:40:48;102635.78;;;8.90;41.19
70916;BME280;58557;50.982;-3.222;2023-01-28T11:43:01;102642.41;;;8.20;42.83
70916;BME280;58557;50.982;-3.222;2023-01-28T11:45:39;102649.09;;;7.09;44.99
70916;BME280;58557;50.982;-3.222;2023-01-28T11:48:06;102644.05;;;8.40;41.95
70916;BME280;58557;50.982;-3.222;2023-01-28T11:50:29;102646.78;;;8.09;41.98
70916;BME280;58557;50.982;-3.222;2023-01-28T11:52:54;102647.65;;;8.91;40.10
70916;BME280;58557;50.982;-3.222;2023-01-28T11:55:18;102646.66;;;9.39;39.26
70916;BME280;58557;50.982;-3.222;2023-01-28T11:57:41;102651.42;;;8.83;40.47
70916;BME280;58557;50.982;-3.222;2023-01-28T12:02:38;102647.92;;;9.63;39.08
70916;BME280;58557;50.982;-3.222;2023-01-28T12:05:03;102644.71;;;9.08;39.85
70916;BME280;58557;50.982;-3.222;2023-01-28T12:07:30;102645.86;;;8.78;41.77
70916;BME280;58557;50.982;-3.222;2023-01-28T12:09:53;102649.86;;;8.53;40.88
70916;BME280;58557;50.982;-3.222;2023-01-28T12:14:37;102643.91;;;8.48;42.26
70916;BME280;58557;50.982;-3.222;2023-01-28T12:17:08;102634.72;;;9.98;40.22
70916;BME280;58557;50.982;-3.222;2023-01-28T12:19:35;102628.38;;;10.37;38.74
70916;BME280;58557;50.982;-3.222;2023-01-28T12:22:01;102622.78;;;10.10;39.00
70916;BME280;58557;50.982;-3.222;2023-01-28T12:24:24;102619.96;;;10.74;38.41
70916;BME280;58557;50.982;-3.222;2023-01-28T12:26:47;102620.93;;;10.63;38.22
70916;BME280;58557;50.982;-3.222;2023-01-28T12:29:16;102619.17;;;11.31;37.89
70916;BME280;58557;50.982;-3.222;2023-01-28T12:36:32;102604.49;;;9.88;39.15
70916;BME280;58557;50.982;-3.222;2023-01-28T12:39:00;102606.05;;;10.05;40.63
70916;BME280;58557;50.982;-3.222;2023-01-28T12:41:14;102611.16;;;8.99;41.19
70916;BME280;58557;50.982;-3.222;2023-01-28T12:43:45;102608.95;;;10.38;38.63
70916;BME280;58557;50.982;-3.222;2023-01-28T12:46:08;102605.68;;;8.90;41.50
70916;BME280;58557;50.982;-3.222;2023-01-28T12:48:33;102612.23;;;7.91;43.26
70916;BME280;58557;50.982;-3.222;2023-01-28T12:51:02;102617.02;;;9.32;41.35
70916;BME280;58557;50.982;-3.222;2023-01-28T12:53:30;102608.07;;;9.60;40.02
70916;BME280;58557;50.982;-3.222;2023-01-28T12:55:46;102602.94;;;9.16;41.22
70916;BME280;58557;50.982;-3.222;2023-01-28T12:58:17;102605.16;;;9.49;41.06
70916;BME280;58557;50.982;-3.222;2023-01-28T13:00:40;102611.93;;;8.75;41.87
70916;BME280;58557;50.982;-3.222;2023-01-28T13:03:08;102612.47;;;8.42;42.43